createdAt,value
2019-05-01T00:01:24.052Z,78.40
2019-05-01T00:04:03.117Z,67.78
2019-05-01T00:06:42.370Z,78.97
2019-05-01T00:09:14.830Z,85.80
2019-05-01T00:11:46.405Z,74.27
2019-05-01T00:14:17.789Z,95.20
2019-05-01T00:16:49.557Z,83.42
2019-05-01T00:19:21.068Z,76.50
2019-05-01T00:21:52.474Z,90.97
2019-05-01T00:24:24.149Z,81.92
2019-05-01T00:26:55.639Z,79.92
2019-05-01T00:29:27.011Z,76.55
2019-05-01T00:31:58.356Z,83.33
2019-05-01T00:34:29.739Z,90.95
2019-05-01T00:37:01.226Z,85.10
2019-05-01T00:39:32.671Z,84.03
2019-05-01T00:42:04.205Z,86.72
2019-05-01T00:44:35.691Z,90.57
2019-05-01T00:47:07.068Z,89.00
2019-05-01T00:49:38.408Z,87.50
2019-05-01T00:52:09.773Z,90.60
2019-05-01T00:54:42.826Z,95.20
2019-05-01T00:57:19.137Z,92.60
2019-05-01T00:59:52.283Z,87.25
2019-05-01T01:02:31.281Z,100.80
2019-05-01T01:05:02.764Z,102.15
2019-05-01T01:07:34.150Z,105.60
2019-05-01T01:10:07.229Z,116.67
2019-05-01T01:12:38.579Z,117.42
2019-05-01T01:15:10.290Z,125.05
2019-05-01T01:17:42.075Z,128.20
2019-05-01T01:20:14.323Z,133.43
2019-05-01T01:22:45.892Z,112.00
2019-05-01T01:25:18.377Z,109.90
2019-05-01T01:27:49.821Z,123.33
2019-05-01T01:30:21.281Z,115.32
2019-05-01T01:32:52.726Z,100.60
2019-05-01T01:35:24.177Z,111.00
2019-05-01T01:37:55.724Z,101.05
2019-05-01T01:40:27.175Z,100.85
2019-05-01T01:43:13.726Z,119.53
2019-05-01T01:45:46.877Z,115.55
2019-05-01T01:48:18.732Z,136.22
2019-05-01T01:50:50.661Z,131.07
2019-05-01T01:53:23.451Z,123.58
2019-05-01T01:55:55.587Z,114.67
2019-05-01T01:58:27.201Z,123.25
2019-05-01T02:01:09.176Z,134.85
2019-05-01T02:03:44.173Z,128.75
2019-05-01T02:06:15.575Z,124.47
2019-05-01T02:08:56.233Z,134.35
2019-05-01T02:11:20.524Z,120.97
2019-05-01T02:13:56.645Z,129.50
2019-05-01T02:16:28.068Z,114.35
2019-05-01T02:18:59.810Z,120.57
2019-05-01T02:21:31.240Z,152.53
2019-05-01T02:24:02.610Z,124.00
2019-05-01T02:26:42.261Z,133.90
2019-05-01T02:29:15.334Z,130.78
2019-05-01T02:31:50.025Z,109.42
2019-05-01T02:34:22.623Z,127.30
2019-05-01T02:36:57.208Z,121.77
2019-05-01T02:39:30.822Z,137.45
2019-05-01T02:42:02.838Z,140.80
2019-05-01T02:44:37.286Z,160.48
2019-05-01T02:47:11.715Z,140.03
2019-05-01T02:49:52.199Z,141.80
2019-05-01T02:52:26.489Z,141.22
2019-05-01T02:55:02.170Z,133.40
2019-05-01T02:57:36.149Z,146.80
2019-05-01T03:00:09.454Z,152.57
2019-05-01T03:02:41.574Z,145.72
2019-05-01T03:05:13.032Z,172.07
2019-05-01T03:07:44.764Z,160.52
2019-05-01T03:10:16.641Z,148.65
2019-05-01T03:12:49.992Z,144.68
2019-05-01T03:15:23.831Z,179.93
2019-05-01T03:17:57.110Z,164.72
2019-05-01T03:20:33.125Z,144.50
2019-05-01T03:23:22.826Z,159.27
2019-05-01T03:25:54.743Z,153.68
2019-05-01T03:28:27.426Z,127.58
2019-05-01T03:30:58.878Z,130.15
2019-05-01T03:33:30.855Z,125.18
2019-05-01T03:36:02.288Z,128.90
2019-05-01T03:38:34.535Z,138.05
2019-05-01T03:41:06.476Z,118.55
2019-05-01T03:43:37.889Z,140.82
2019-05-01T03:46:10.594Z,138.62
2019-05-01T03:48:42.626Z,130.25
2019-05-01T03:51:14.063Z,123.02
2019-05-01T03:53:46.567Z,127.17
2019-05-01T03:56:18.794Z,137.85
2019-05-01T03:58:50.961Z,140.57
2019-05-01T04:01:40.112Z,134.18
2019-05-01T04:04:13.229Z,152.43
2019-05-01T04:06:44.888Z,135.32
2019-05-01T04:09:16.648Z,137.75
2019-05-01T04:11:49.067Z,130.85
2019-05-01T04:14:20.972Z,125.72
2019-05-01T04:16:53.993Z,127.65
2019-05-01T04:19:26.860Z,122.37
2019-05-01T04:22:00.059Z,118.93
2019-05-01T04:24:32.000Z,130.35
2019-05-01T04:27:05.231Z,124.95
2019-05-01T04:29:38.430Z,122.67
2019-05-01T04:32:14.702Z,121.37
2019-05-01T04:34:48.094Z,125.72
2019-05-01T04:37:21.744Z,123.13
2019-05-01T04:39:53.087Z,111.10
2019-05-01T04:42:24.580Z,111.52
2019-05-01T04:44:56.252Z,99.28
2019-05-01T04:47:27.812Z,102.70
2019-05-01T04:50:00.316Z,92.22
2019-05-01T04:52:31.846Z,97.00
2019-05-01T04:55:04.536Z,91.92
2019-05-01T04:57:36.280Z,93.10
2019-05-01T05:00:08.346Z,95.28
2019-05-01T05:02:44.242Z,93.65
2019-05-01T05:05:15.798Z,87.42
2019-05-01T05:07:47.398Z,94.72
2019-05-01T05:10:19.002Z,94.17
2019-05-01T05:12:52.037Z,93.07
2019-05-01T05:15:34.371Z,91.65
2019-05-01T05:18:06.721Z,84.85
2019-05-01T05:20:38.319Z,90.20
2019-05-01T05:23:10.046Z,82.78
2019-05-01T05:25:42.760Z,84.75
2019-05-01T05:28:14.770Z,81.35
2019-05-01T05:30:48.088Z,81.42
2019-05-01T05:33:20.934Z,70.50
2019-05-01T05:35:54.166Z,78.62
2019-05-01T05:38:29.745Z,74.47
2019-05-01T05:41:03.177Z,70.78
2019-05-01T05:46:05.660Z,67.72
2019-05-01T05:48:38.482Z,73.30
2019-05-01T05:51:13.198Z,72.05
2019-05-01T05:53:48.424Z,72.87
2019-05-01T05:56:21.990Z,66.67
2019-05-01T05:59:03.522Z,67.72
2019-05-01T06:01:39.214Z,72.22
2019-05-01T06:04:26.388Z,68.70
2019-05-01T06:07:01.095Z,67.50
2019-05-01T06:09:37.107Z,64.05
2019-05-01T06:12:21.699Z,60.40
2019-05-01T06:15:02.402Z,58.95
2019-05-01T06:17:42.092Z,62.08
2019-05-01T06:20:26.021Z,58.50
2019-05-01T06:23:06.098Z,55.52
2019-05-01T06:25:40.750Z,52.17
2019-05-01T06:28:12.897Z,48.52
2019-05-01T06:30:47.169Z,50.43
2019-05-01T06:33:17.542Z,48.85
2019-05-01T06:35:48.942Z,48.75
2019-05-01T06:38:20.849Z,53.33
2019-05-01T06:40:58.133Z,45.23
2019-05-01T06:43:46.450Z,50.23
2019-05-01T06:46:22.173Z,43.68
2019-05-01T06:48:59.021Z,44.27
2019-05-01T06:51:35.880Z,48.92
2019-05-01T06:54:11.489Z,50.48
2019-05-01T06:56:44.843Z,45.25
2019-05-01T06:59:18.078Z,40.28
2019-05-01T07:01:53.207Z,45.58
2019-05-01T07:04:24.655Z,45.12
2019-05-01T07:06:56.422Z,44.65
2019-05-01T07:09:28.503Z,44.90
2019-05-01T07:12:01.246Z,41.30
2019-05-01T07:14:32.761Z,41.60
2019-05-01T07:17:04.200Z,39.27
2019-05-01T07:19:46.355Z,40.78
2019-05-01T07:22:17.952Z,45.45
2019-05-01T07:24:49.550Z,40.70
2019-05-01T07:27:23.907Z,46.68
2019-05-01T07:29:55.945Z,38.67
2019-05-01T07:32:28.023Z,38.42
2019-05-01T07:35:02.090Z,42.58
2019-05-01T07:37:33.834Z,37.95
2019-05-01T07:40:09.391Z,35.73
2019-05-01T07:42:43.735Z,48.65
2019-05-01T07:45:19.606Z,36.88
2019-05-01T07:47:53.474Z,34.10
2019-05-01T07:50:31.633Z,39.20
2019-05-01T07:52:58.382Z,42.27
2019-05-01T07:55:35.857Z,41.10
2019-05-01T07:58:10.456Z,39.55
2019-05-01T08:01:04.277Z,36.40
2019-05-01T08:03:37.926Z,45.33
2019-05-01T08:06:08.997Z,38.45
2019-05-01T08:08:40.967Z,39.45
2019-05-01T08:11:12.413Z,38.53
2019-05-01T08:13:43.862Z,37.75
2019-05-01T08:16:15.318Z,34.73
2019-05-01T08:18:54.410Z,35.90
2019-05-01T08:21:27.593Z,38.10
2019-05-01T08:23:58.991Z,33.85
2019-05-01T08:26:30.335Z,40.30
2019-05-01T08:29:06.825Z,33.30
2019-05-01T08:31:41.383Z,31.55
2019-05-01T08:34:32.468Z,41.42
2019-05-01T08:37:06.457Z,38.33
2019-05-01T08:39:39.814Z,36.65
2019-05-01T08:42:09.969Z,34.40
2019-05-01T08:44:43.058Z,37.90
2019-05-01T08:47:28.025Z,35.35
2019-05-01T08:50:01.023Z,40.38
2019-05-01T08:52:32.656Z,38.23
2019-05-01T08:55:09.296Z,38.07
2019-05-01T08:57:39.748Z,36.85
2019-05-01T09:00:11.506Z,30.77
2019-05-01T09:02:43.739Z,37.23
2019-05-01T09:07:51.199Z,37.55
2019-05-01T09:10:23.257Z,33.00
2019-05-01T09:12:54.827Z,34.65
2019-05-01T09:15:26.175Z,43.60
2019-05-01T09:17:58.708Z,31.67
2019-05-01T09:20:31.449Z,38.17
2019-05-01T09:23:02.694Z,39.55
2019-05-01T09:25:41.935Z,41.23
2019-05-01T09:28:18.004Z,41.75
2019-05-01T09:31:01.618Z,46.02
2019-05-01T09:33:30.820Z,39.88
2019-05-01T09:36:03.580Z,42.10
2019-05-01T09:38:34.982Z,44.73
2019-05-01T09:41:06.475Z,36.65
2019-05-01T09:43:37.919Z,34.95
2019-05-01T09:46:09.579Z,37.93
2019-05-01T09:48:41.039Z,42.90
2019-05-01T09:51:19.790Z,41.33
2019-05-01T09:54:09.889Z,40.28
2019-05-01T09:56:42.724Z,37.15
2019-05-01T09:59:17.360Z,44.40
2019-05-01T10:01:47.746Z,37.80
2019-05-01T10:04:19.681Z,34.98
2019-05-01T10:06:52.390Z,33.35
2019-05-01T10:09:26.613Z,39.78
2019-05-01T10:11:57.286Z,39.78
2019-05-01T10:14:31.732Z,46.48
2019-05-01T10:17:01.931Z,34.75
2019-05-01T10:19:33.382Z,30.25
2019-05-01T10:22:04.758Z,36.58
2019-05-01T10:24:37.587Z,34.00
2019-05-01T10:27:11.117Z,34.33
2019-05-01T10:29:50.147Z,30.82
2019-05-01T10:32:23.271Z,29.15
2019-05-01T10:34:56.906Z,30.40
2019-05-01T10:37:33.162Z,21.90
2019-05-01T10:40:01.182Z,24.98
2019-05-01T10:42:32.626Z,23.22
2019-05-01T10:45:06.512Z,29.20
2019-05-01T10:47:38.071Z,18.57
2019-05-01T10:50:09.504Z,26.00
2019-05-01T10:52:40.797Z,21.77
2019-05-01T10:55:12.448Z,24.15
2019-05-01T10:57:43.779Z,14.98
2019-05-01T11:00:15.421Z,23.55
2019-05-01T11:02:48.646Z,22.25
2019-05-01T11:05:20.033Z,25.00
2019-05-01T11:07:51.389Z,26.57
2019-05-01T11:10:22.679Z,39.48
2019-05-01T11:12:54.345Z,42.27
2019-05-01T11:15:26.217Z,41.37
2019-05-01T11:17:57.875Z,39.27
2019-05-01T11:20:29.620Z,29.77
2019-05-01T11:23:01.186Z,40.20
2019-05-01T11:25:33.238Z,35.68
2019-05-01T11:28:05.250Z,60.50
2019-05-01T11:30:36.970Z,44.88
2019-05-01T11:33:10.305Z,47.67
2019-05-01T11:35:46.232Z,30.27
2019-05-01T11:38:19.348Z,35.52
2019-05-01T11:40:52.622Z,26.10
2019-05-01T11:43:24.159Z,29.07
2019-05-01T11:45:55.742Z,23.25
2019-05-01T11:48:30.111Z,32.13
2019-05-01T11:53:31.231Z,26.70
2019-05-01T11:56:02.763Z,25.68
2019-05-01T11:58:34.318Z,30.37
2019-05-01T12:01:06.663Z,29.80
2019-05-01T12:03:38.246Z,22.00
2019-05-01T12:06:22.288Z,19.80
2019-05-01T12:11:16.188Z,24.35
2019-05-01T12:13:47.721Z,16.50
2019-05-01T12:16:20.765Z,12.40
2019-05-01T12:18:52.373Z,12.23
2019-05-01T12:21:23.995Z,15.65
2019-05-01T12:23:55.559Z,15.20
2019-05-01T12:26:27.149Z,24.02
2019-05-01T12:28:58.824Z,17.40
2019-05-01T12:31:31.335Z,18.90
2019-05-01T12:34:03.032Z,11.15
2019-05-01T12:36:36.340Z,10.13
2019-05-01T12:39:10.646Z,23.62
2019-05-01T12:41:51.013Z,13.68
2019-05-01T12:44:22.538Z,13.78
2019-05-01T12:47:01.789Z,8.55
2019-05-01T12:49:33.330Z,17.52
2019-05-01T12:52:10.575Z,13.80
2019-05-01T12:54:41.311Z,9.50
2019-05-01T12:57:13.406Z,13.05
2019-05-01T12:59:44.983Z,15.53
2019-05-01T13:02:16.523Z,8.78
2019-05-01T13:04:48.064Z,9.10
2019-05-01T13:07:19.833Z,8.05
2019-05-01T13:09:51.518Z,10.18
2019-05-01T13:12:24.232Z,18.50
2019-05-01T13:14:55.806Z,9.38
2019-05-01T13:17:27.380Z,9.00
2019-05-01T13:19:58.923Z,18.48
2019-05-01T13:22:30.468Z,17.17
2019-05-01T13:25:02.048Z,22.55
2019-05-01T13:27:35.152Z,15.80
2019-05-01T13:30:19.829Z,15.75
2019-05-01T13:32:52.922Z,55.33
2019-05-01T13:35:24.438Z,27.32
2019-05-01T13:37:55.977Z,8.20
2019-05-01T13:41:10.969Z,43.75
2019-05-01T13:43:42.699Z,45.12
2019-05-01T13:46:14.259Z,18.20
2019-05-01T13:48:45.949Z,25.48
2019-05-01T13:51:17.473Z,26.17
2019-05-01T13:53:49.016Z,7.90
2019-05-01T13:56:21.069Z,23.92
2019-05-01T13:58:52.676Z,10.78
2019-05-01T14:01:24.695Z,10.80
2019-05-01T14:03:56.294Z,13.35
2019-05-01T14:06:27.827Z,12.88
2019-05-01T14:08:59.379Z,16.07
2019-05-01T14:11:30.928Z,14.58
2019-05-01T14:14:02.487Z,12.68
2019-05-01T14:16:34.038Z,13.30
2019-05-01T14:19:05.593Z,6.83
2019-05-01T14:21:38.719Z,11.53
2019-05-01T14:24:14.494Z,7.70
2019-05-01T14:26:45.993Z,12.03
2019-05-01T14:29:17.668Z,15.75
2019-05-01T14:31:49.216Z,10.72
2019-05-01T14:34:20.749Z,5.50
2019-05-01T14:36:52.288Z,15.70
2019-05-01T14:39:23.850Z,14.85
2019-05-01T14:41:55.562Z,8.05
2019-05-01T14:44:36.610Z,10.30
2019-05-01T14:47:00.455Z,7.87
2019-05-01T14:49:32.009Z,10.45
2019-05-01T14:52:03.605Z,8.55
2019-05-01T14:54:35.225Z,6.95
2019-05-01T14:57:06.787Z,13.32
2019-05-01T14:59:39.234Z,11.93
2019-05-01T15:02:11.274Z,12.25
2019-05-01T15:04:42.855Z,5.30
2019-05-01T15:07:14.444Z,10.43
2019-05-01T15:09:45.963Z,7.87
2019-05-01T15:12:17.519Z,13.10
2019-05-01T15:14:53.598Z,13.98
2019-05-01T15:17:29.449Z,8.35
2019-05-01T15:20:03.488Z,9.45
2019-05-01T15:22:35.689Z,7.50
2019-05-01T15:25:07.587Z,13.88
2019-05-01T15:27:39.173Z,7.92
2019-05-01T15:30:12.461Z,9.18
2019-05-01T15:32:43.934Z,6.50
2019-05-01T15:35:15.427Z,6.62
2019-05-01T15:37:56.500Z,10.72
2019-05-01T15:42:54.272Z,9.80
2019-05-01T15:45:25.848Z,10.25
2019-05-01T15:47:57.433Z,9.40
2019-05-01T15:50:28.966Z,16.97
2019-05-01T15:53:00.512Z,20.02
2019-05-01T15:55:32.135Z,16.37
2019-05-01T15:58:03.721Z,21.65
2019-05-01T16:00:35.384Z,18.12
2019-05-01T16:03:06.920Z,9.60
2019-05-01T16:05:38.518Z,9.30
2019-05-01T16:08:10.173Z,8.28
2019-05-01T16:10:43.302Z,7.05
2019-05-01T16:13:14.909Z,11.90
2019-05-01T16:15:46.491Z,13.28
2019-05-01T16:18:18.056Z,6.85
2019-05-01T16:20:49.726Z,7.47
2019-05-01T16:26:12.011Z,9.00
2019-05-01T16:28:43.547Z,8.58
2019-05-01T16:31:15.525Z,8.63
2019-05-01T16:33:47.356Z,16.27
2019-05-01T16:36:20.398Z,20.72
2019-05-01T16:39:02.751Z,13.13
2019-05-01T16:41:36.154Z,13.50
2019-05-01T16:44:08.120Z,15.72
2019-05-01T16:46:39.969Z,10.23
2019-05-01T16:49:11.845Z,13.35
2019-05-01T16:51:43.591Z,13.13
2019-05-01T16:54:15.652Z,16.62
2019-05-01T16:56:48.196Z,14.75
2019-05-01T16:59:20.011Z,8.60
2019-05-01T17:01:58.064Z,5.45
2019-05-01T17:04:32.728Z,13.62
2019-05-01T17:07:28.715Z,12.33
2019-05-01T17:10:08.307Z,7.17
2019-05-01T17:12:47.981Z,9.55
2019-05-01T17:15:21.453Z,9.33
2019-05-01T17:17:52.986Z,8.28
2019-05-01T17:20:26.278Z,9.40
2019-05-01T17:22:57.860Z,7.62
2019-05-01T17:25:29.683Z,107.00
2019-05-01T17:28:08.225Z,26.00
2019-05-01T17:30:46.578Z,9.25
2019-05-01T17:33:20.730Z,10.98
2019-05-01T17:35:51.784Z,10.25
2019-05-01T17:38:23.558Z,10.20
2019-05-01T17:40:55.137Z,19.50
2019-05-01T17:43:26.701Z,15.25
2019-05-01T17:46:01.014Z,14.33
2019-05-01T17:48:33.656Z,17.92
2019-05-01T17:51:06.241Z,16.93
2019-05-01T17:53:37.863Z,15.23
2019-05-01T17:56:10.048Z,9.35
2019-05-01T17:58:42.526Z,6.87
2019-05-01T18:01:33.159Z,11.45
2019-05-01T18:04:18.479Z,5.00
2019-05-01T18:06:51.373Z,11.28
2019-05-01T18:09:22.847Z,6.87
2019-05-01T18:11:54.244Z,15.72
2019-05-01T18:14:25.559Z,8.18
2019-05-01T18:16:56.914Z,16.37
2019-05-01T18:19:28.389Z,9.18
2019-05-01T18:22:01.347Z,12.03
2019-05-01T18:24:43.228Z,5.55
2019-05-01T18:27:20.374Z,8.25
2019-05-01T18:29:53.487Z,8.98
2019-05-01T18:32:36.474Z,16.32
2019-05-01T18:35:14.189Z,7.50
2019-05-01T18:37:49.940Z,13.53
2019-05-01T18:40:34.845Z,13.00
2019-05-01T18:43:06.837Z,9.60
2019-05-01T18:45:53.095Z,6.87
2019-05-01T18:48:24.938Z,11.28
2019-05-01T18:50:56.558Z,7.50
2019-05-01T18:53:28.102Z,6.78
2019-05-01T18:56:01.413Z,7.83
2019-05-01T18:58:32.500Z,4.00
2019-05-01T19:01:08.738Z,6.42
2019-05-01T19:03:37.209Z,8.15
2019-05-01T19:06:09.873Z,8.00
2019-05-01T19:08:41.195Z,19.17
2019-05-01T19:11:13.409Z,5.97
2019-05-01T19:13:44.855Z,8.93
2019-05-01T19:16:17.578Z,6.90
2019-05-01T19:18:51.729Z,15.32
2019-05-01T19:21:24.567Z,4.45
2019-05-01T19:24:00.432Z,5.53
2019-05-01T19:26:29.157Z,3.62
2019-05-01T19:29:03.751Z,8.78
2019-05-01T19:31:35.004Z,5.33
2019-05-01T19:34:06.467Z,6.40
2019-05-01T19:36:40.388Z,6.75
2019-05-01T19:39:11.707Z,12.15
2019-05-01T19:41:49.117Z,7.45
2019-05-01T19:44:18.956Z,5.50
2019-05-01T19:46:50.056Z,5.83
2019-05-01T19:49:24.631Z,14.50
2019-05-01T19:51:55.531Z,8.35
2019-05-01T19:54:29.809Z,7.03
2019-05-01T19:57:00.581Z,6.37
2019-05-01T19:59:33.067Z,10.05
2019-05-01T20:02:05.932Z,9.18
2019-05-01T20:04:37.294Z,10.65
2019-05-01T20:07:10.687Z,8.03
2019-05-01T20:09:41.654Z,9.55
2019-05-01T20:12:12.972Z,10.43
2019-05-01T20:14:49.056Z,7.17
2019-05-01T20:17:20.442Z,7.83
2019-05-01T20:19:51.947Z,8.05
2019-05-01T20:22:23.189Z,5.55
2019-05-01T20:24:54.480Z,4.05
2019-05-01T20:27:27.644Z,4.17
2019-05-01T20:29:58.742Z,8.80
2019-05-01T20:32:30.144Z,6.00
2019-05-01T20:35:01.484Z,9.10
2019-05-01T20:37:33.790Z,4.80
2019-05-01T20:40:11.356Z,4.00
2019-05-01T20:42:40.959Z,10.08
2019-05-01T20:45:17.343Z,7.20
2019-05-01T20:50:17.903Z,5.72
2019-05-01T20:52:49.304Z,6.45
2019-05-01T20:55:20.731Z,5.35
2019-05-01T20:57:52.079Z,7.28
2019-05-01T21:00:25.560Z,3.20
2019-05-01T21:02:56.824Z,6.50
2019-05-01T21:05:29.655Z,5.95
2019-05-01T21:08:02.575Z,4.92
2019-05-01T21:10:36.081Z,7.80
2019-05-01T21:15:39.016Z,8.10
2019-05-01T21:18:10.406Z,5.17
2019-05-01T21:20:43.474Z,4.87
2019-05-01T21:23:14.720Z,3.50
2019-05-01T21:25:46.024Z,2.15
2019-05-01T21:28:17.439Z,5.12
2019-05-01T21:30:48.825Z,10.82
2019-05-01T21:33:20.239Z,2.75
2019-05-01T21:35:53.357Z,6.40
2019-05-01T21:38:24.707Z,2.55
2019-05-01T21:40:56.002Z,3.12
2019-05-01T21:43:32.499Z,3.90
2019-05-01T21:46:01.131Z,6.92
2019-05-01T21:48:33.436Z,3.55
2019-05-01T21:51:07.511Z,3.08
2019-05-01T21:53:42.677Z,2.67
2019-05-01T21:56:12.170Z,6.87
2019-05-01T21:58:45.249Z,1.12
2019-05-01T22:01:16.645Z,2.77
2019-05-01T22:03:48.111Z,2.70
2019-05-01T22:06:20.819Z,3.22
2019-05-01T22:08:52.075Z,4.85
2019-05-01T22:11:23.474Z,10.38
2019-05-01T22:13:55.189Z,5.97
2019-05-01T22:16:29.418Z,5.08
2019-05-01T22:19:02.274Z,2.58
2019-05-01T22:21:35.260Z,7.58
2019-05-01T22:24:26.182Z,5.35
2019-05-01T22:27:05.246Z,5.05
2019-05-01T22:29:38.229Z,5.53
2019-05-01T22:32:14.049Z,4.28
2019-05-01T22:34:50.047Z,2.95
2019-05-01T22:37:21.275Z,3.22
2019-05-01T22:39:56.938Z,5.97
2019-05-01T22:42:28.168Z,6.15
2019-05-01T22:44:59.430Z,4.65
2019-05-01T22:47:30.864Z,2.98
2019-05-01T22:50:02.233Z,5.65
2019-05-01T22:52:33.847Z,3.77
2019-05-01T22:55:06.645Z,5.50
2019-05-01T22:57:38.190Z,4.83
2019-05-01T23:00:14.017Z,2.08
2019-05-01T23:02:45.927Z,5.00
2019-05-01T23:05:17.418Z,2.87
2019-05-01T23:07:48.684Z,4.20
2019-05-01T23:10:20.953Z,6.12
2019-05-01T23:12:52.679Z,2.20
2019-05-01T23:15:25.722Z,4.25
2019-05-01T23:17:58.135Z,6.50
2019-05-01T23:20:29.843Z,10.55
2019-05-01T23:23:01.259Z,11.18
2019-05-01T23:25:36.668Z,10.05
2019-05-01T23:28:06.165Z,6.60
2019-05-01T23:30:37.562Z,4.10
2019-05-01T23:33:08.940Z,7.15
2019-05-01T23:35:40.706Z,8.20
2019-05-01T23:38:12.363Z,6.42
2019-05-01T23:40:46.141Z,5.75
2019-05-01T23:43:17.688Z,6.28
2019-05-01T23:45:48.943Z,5.03
2019-05-01T23:48:20.445Z,6.50
2019-05-01T23:50:51.789Z,3.77
2019-05-01T23:53:23.008Z,4.65
2019-05-01T23:55:54.718Z,9.25
2019-05-01T23:58:27.279Z,9.33
